Terminal Aerodrome Forecast
Issued by NWS

Home | Current Version | Previous Version | Text Only | Print | Product List | Glossary On
Versions: 1 2 3 4 5 6 7 8 9 10 11 12 13
998
FTUS44 KJAN 270545
TAFGTR
TAF
KGTR 270545Z 2706/2806 19008KT P6SM FEW100
     FM270900 17007KT P6SM BKN015
     FM271100 17008KT 4SM BR BKN008
     FM271400 18010G19KT P6SM BKN015
     FM271600 19013G19KT P6SM BKN025
     FM271900 20013G20KT P6SM VCSH SCT040
     FM272200 20011KT P6SM TSRA BKN050CB=

USA.gov is the U.S. government's official web portal to all federal, state and local government web resources and services.